createdAt,value
2023-05-04T09:47:04.444Z,3.30
2023-05-04T09:58:21.289Z,2.65
2023-05-04T10:03:32.673Z,2.38
2023-05-04T10:09:24.166Z,2.20
2023-05-04T10:11:52.437Z,2.22
2023-05-04T10:14:24.764Z,2.72
2023-05-04T10:17:21.650Z,2.97
2023-05-04T10:20:38.361Z,2.80
2023-05-04T10:23:17.369Z,2.97
2023-05-04T10:25:51.003Z,2.78
2023-05-04T10:31:25.852Z,2.47
2023-05-04T10:33:58.590Z,2.60
2023-05-04T10:36:41.878Z,2.53
2023-05-04T10:39:10.201Z,2.33
2023-05-04T10:41:39.002Z,2.60
2023-05-04T10:44:07.028Z,2.25
2023-05-04T10:46:42.852Z,2.45
2023-05-04T10:49:20.748Z,3.00
2023-05-04T10:52:05.546Z,3.20
2023-05-04T10:54:33.000Z,3.10
2023-05-04T11:00:07.668Z,2.45
2023-05-04T11:02:35.437Z,2.25
2023-05-04T11:11:38.372Z,2.15
2023-05-04T11:14:30.841Z,1.70
2023-05-04T11:22:25.198Z,1.90
2023-05-04T11:28:00.202Z,1.77
2023-05-04T11:30:33.915Z,1.90
2023-05-04T11:33:12.914Z,2.07
2023-05-04T11:35:41.236Z,2.00
2023-05-04T11:38:32.678Z,1.95
2023-05-04T11:58:21.600Z,1.77
2023-05-04T12:07:17.813Z,2.25
2023-05-04T12:10:07.033Z,2.00
2023-05-04T12:12:50.822Z,2.08
2023-05-04T12:26:57.080Z,1.77
2023-05-04T12:29:34.653Z,1.60
2023-05-04T12:32:04.829Z,1.52
2023-05-04T12:37:21.356Z,2.13
2023-05-04T12:43:56.818Z,1.40
2023-05-04T12:49:24.862Z,1.60
2023-05-04T12:51:53.240Z,2.00
2023-05-04T12:54:23.346Z,1.70
2023-05-04T12:56:50.730Z,1.80
2023-05-04T12:59:19.035Z,1.67
2023-05-04T13:01:46.132Z,1.90
2023-05-04T13:04:14.951Z,1.80
2023-05-04T13:06:42.906Z,1.55
2023-05-04T13:12:02.360Z,1.35
2023-05-04T13:14:29.979Z,1.50
2023-05-04T13:17:05.590Z,1.90
2023-05-04T13:19:40.329Z,1.67
2023-05-04T13:22:10.316Z,1.67
2023-05-04T13:31:02.396Z,1.70
2023-05-04T13:33:30.953Z,1.38
2023-05-04T13:36:09.261Z,1.45
2023-05-04T13:38:38.343Z,1.67
2023-05-04T13:41:07.254Z,1.70
2023-05-04T13:43:37.797Z,1.70
2023-05-04T13:46:13.487Z,1.67
2023-05-04T13:48:40.560Z,1.70
2023-05-04T13:54:04.333Z,1.50
2023-05-04T13:56:46.120Z,1.63
2023-05-04T13:59:22.040Z,1.70
2023-05-04T14:01:49.331Z,1.88
2023-05-04T14:04:16.980Z,1.90
2023-05-04T14:06:44.204Z,1.60
2023-05-04T14:09:11.625Z,2.13
2023-05-04T14:11:39.980Z,1.63
2023-05-04T14:14:08.180Z,1.80
2023-05-04T14:16:37.602Z,1.80
2023-05-04T14:19:08.309Z,1.55
2023-05-04T14:21:36.240Z,1.65
2023-05-04T14:24:03.752Z,1.58
2023-05-04T14:26:39.542Z,2.00
2023-05-04T14:29:06.877Z,1.67
2023-05-04T14:31:53.925Z,2.00
2023-05-04T14:34:21.199Z,1.50
2023-05-04T14:36:48.626Z,1.60
2023-05-04T14:39:19.384Z,1.35
2023-05-04T14:41:55.555Z,1.27
2023-05-04T14:44:29.268Z,1.75
2023-05-04T14:49:36.546Z,1.55
2023-05-04T14:52:11.218Z,1.45
2023-05-04T14:54:38.610Z,1.80
2023-05-04T14:57:09.205Z,1.60
2023-05-04T14:59:38.319Z,1.70
2023-05-04T15:02:06.680Z,1.48
2023-05-04T15:04:34.554Z,1.55
2023-05-04T15:07:02.250Z,1.50
